Sacred Heart, Minnesota
Current Conditions -  °F | °C
As of 6:32 AM on Monday 20 Oct 2014 (Local Time) from KGDB Reporting Station
Clear Clear  
Wind Chill: 30°   Ceiling: Unl
Heat Index: 36°   Visibility: 7mi
Dew Point: 33°   Wind: 7mph
Humidity: 91%   Direction: 280°W
Pressure: 30.03"   Gusts: NA
Location:  44.79°N, 95.35°W
Report Text: KGDB 201132Z AUTO 28006KT 7SM CLR 02/01 A3003 RMK AO2 T00200006
Loading
Personal Weather Stations






























Interactive Weather Map
Tropical Storm Tracking
New forecast layout! Learn more

10-Day Weather Forecast

Advertisements
Track Severe Weather on mobile